Time;durP1;ratioP1;P1;durP2;ratioP2;P2;SDS_P1;SDS_P2;PMS_P1;PMS_P2;Temp;Humidity;BMP_temperature;BMP_pressure;BME280_temperature;BME280_humidity;BME280_pressure;Samples;Min_cycle;Max_cycle;Signal;HPM_P1;HPM_P2
2022/06/06 00:02:11;;;;;;;9.05;1.95;;;18.40;99.90;;;;;;4096293;29;20058;-53
2022/06/06 00:04:34;;;;;;;6.55;1.73;;;18.50;99.90;;;;;;4095815;29;20127;-54
2022/06/06 00:06:58;;;;;;;5.68;1.70;;;18.50;99.90;;;;;;4080401;29;20058;-51
2022/06/06 00:09:19;;;;;;;5.57;1.40;;;18.50;99.90;;;;;;4096032;29;20130;-52
2022/06/06 00:11:41;;;;;;;6.55;1.98;;;18.30;99.90;;;;;;4120018;28;20085;-51
2022/06/06 00:14:03;;;;;;;5.30;1.85;;;18.10;99.90;;;;;;4094967;29;20556;-52
2022/06/06 00:16:24;;;;;;;8.73;1.65;;;18.10;99.90;;;;;;4095709;29;20131;-55
2022/06/06 00:18:45;;;;;;;5.38;2.03;;;18.20;99.90;;;;;;4095123;29;20585;-53
2022/06/06 00:21:08;;;;;;;6.30;1.92;;;18.20;99.90;;;;;;4095610;29;20588;-54
2022/06/06 00:23:29;;;;;;;13.85;2.78;;;18.00;99.90;;;;;;4095931;29;20058;-53
2022/06/06 00:25:50;;;;;;;9.43;2.15;;;17.80;99.90;;;;;;4095749;29;20062;-53
2022/06/06 00:28:10;;;;;;;3.47;1.70;;;17.70;99.90;;;;;;4095604;29;20047;-53
2022/06/06 00:30:31;;;;;;;7.13;2.28;;;17.60;99.90;;;;;;4094502;29;20046;-53
2022/06/06 00:35:31;;;;;;;7.93;2.15;;;17.80;99.90;;;;;;4095446;29;20554;-52
2022/06/06 00:37:52;;;;;;;3.47;1.95;;;17.60;99.90;;;;;;4095747;29;20058;-54
2022/06/06 00:40:14;;;;;;;11.30;1.95;;;17.60;99.90;;;;;;4095444;29;20062;-52
2022/06/06 00:42:39;;;;;;;3.67;1.85;;;17.60;99.90;;;;;;4095823;29;20693;-53
2022/06/06 00:45:23;;;;;;;4.25;1.30;;;17.50;99.90;;;;;;4093767;29;20480;-54
2022/06/06 00:47:46;;;;;;;8.48;2.58;;;17.20;99.90;;;;;;4095415;29;20279;-53
2022/06/06 00:50:10;;;;;;;;;;;17.30;99.90;;;;;;4094950;29;20106;-53
2022/06/06 00:52:38;;;;;;;7.68;2.33;;;17.40;99.90;;;;;;4095628;29;19930;-54
2022/06/06 00:55:06;;;;;;;6.30;1.90;;;17.30;99.90;;;;;;4079812;29;20171;-52
2022/06/06 00:57:33;;;;;;;10.73;2.95;;;17.30;99.90;;;;;;4091455;29;20101;-53
2022/06/06 00:59:54;;;;;;;9.27;1.80;;;17.20;99.90;;;;;;4095153;29;20054;-53
2022/06/06 01:02:16;;;;;;;9.65;1.98;;;17.10;99.90;;;;;;4095400;29;20065;-52
2022/06/06 01:04:39;;;;;;;4.73;2.10;;;16.90;99.90;;;;;;4095179;29;20414;-52
2022/06/06 01:07:00;;;;;;;5.72;2.20;;;17.00;99.90;;;;;;4094841;29;20517;-52
2022/06/06 01:09:22;;;;;;;8.55;2.00;;;17.10;99.90;;;;;;4089996;29;20109;-54
2022/06/06 01:11:50;;;;;;;10.27;1.75;;;17.10;99.90;;;;;;4130967;28;20052;-53
2022/06/06 01:14:17;;;;;;;6.95;2.83;;;17.20;99.90;;;;;;4079208;29;20599;-52
2022/06/06 01:17:21;;;;;;;4.28;1.75;;;17.30;99.90;;;;;;4091809;29;20057;-52
2022/06/06 01:19:42;;;;;;;8.88;2.38;;;17.30;99.90;;;;;;4094859;29;20058;-53
2022/06/06 01:22:24;;;;;;;9.35;2.35;;;17.10;99.90;;;;;;4094679;29;20124;-54
2022/06/06 01:25:06;;;;;;;10.93;1.75;;;17.00;99.90;;;;;;4094651;29;20148;-53
2022/06/06 01:27:49;;;;;;;6.47;2.13;;;16.90;99.90;;;;;;4094936;29;20101;-53
2022/06/06 01:30:15;;;;;;;;;;;16.70;99.90;;;;;;4079787;29;20051;-53
2022/06/06 01:32:42;;;;;;;4.30;2.15;;;16.70;99.90;;;;;;4091691;29;19929;-54
2022/06/06 01:35:06;;;;;;;5.60;1.77;;;16.60;99.90;;;;;;4094684;29;20062;-54
2022/06/06 01:37:34;;;;;;;12.07;2.53;;;16.60;99.90;;;;;;4094889;29;20097;-54
2022/06/06 01:39:56;;;;;;;9.93;2.88;;;16.50;99.90;;;;;;4094509;29;20109;-53
2022/06/06 01:42:17;;;;;;;4.97;2.47;;;16.50;99.90;;;;;;4081881;29;20105;-53
2022/06/06 01:44:46;;;;;;;6.55;1.75;;;16.50;99.90;;;;;;4093438;29;20050;-53
2022/06/06 01:47:14;;;;;;;4.93;1.83;;;16.60;99.90;;;;;;4094770;29;20517;-54
2022/06/06 01:49:36;;;;;;;12.52;3.35;;;16.50;99.90;;;;;;4094410;29;20392;-51
2022/06/06 01:52:02;;;;;;;10.77;2.05;;;16.50;99.90;;;;;;4094783;29;20050;-54
2022/06/06 01:54:23;;;;;;;6.68;2.15;;;16.50;99.90;;;;;;4094529;29;20054;-52
2022/06/06 01:56:45;;;;;;;6.28;2.13;;;16.60;99.90;;;;;;4094718;29;20059;-53
2022/06/06 01:59:05;;;;;;;5.63;1.60;;;16.50;99.90;;;;;;4094484;29;20062;-52
2022/06/06 02:01:26;;;;;;;10.52;2.42;;;16.60;99.90;;;;;;4094421;29;20105;-52
2022/06/06 02:03:47;;;;;;;5.65;1.65;;;16.50;99.90;;;;;;4094405;29;20062;-54
2022/06/06 02:06:08;;;;;;;6.35;2.38;;;16.30;99.90;;;;;;4094654;29;20049;-53
2022/06/06 02:08:30;;;;;;;7.57;2.05;;;16.30;99.90;;;;;;4094646;29;20054;-52
2022/06/06 02:10:51;;;;;;;7.28;2.10;;;16.30;99.90;;;;;;4102586;28;20280;-54
2022/06/06 02:13:12;;;;;;;7.85;3.00;;;16.40;99.90;;;;;;4147034;28;20054;-52
2022/06/06 02:15:33;;;;;;;6.07;2.38;;;16.40;99.90;;;;;;4094435;29;20062;-53
2022/06/06 02:17:56;;;;;;;5.68;2.80;;;16.40;99.90;;;;;;4086862;28;20487;-53
2022/06/06 02:20:19;;;;;;;9.90;2.47;;;16.40;99.90;;;;;;4093951;29;20098;-53
2022/06/06 02:22:41;;;;;;;8.13;1.88;;;16.40;99.90;;;;;;4094298;29;20049;-53
2022/06/06 02:25:03;;;;;;;8.02;1.30;;;16.30;99.90;;;;;;4094064;29;20055;-53
2022/06/06 02:27:24;;;;;;;8.38;2.55;;;16.20;99.90;;;;;;4078656;29;20528;-52
2022/06/06 02:29:46;;;;;;;10.25;2.22;;;16.30;99.90;;;;;;4088758;29;20078;-53
2022/06/06 02:32:08;;;;;;;5.13;2.97;;;16.30;99.90;;;;;;4094152;29;20119;-53
2022/06/06 02:34:29;;;;;;;6.13;1.92;;;16.20;99.90;;;;;;4094293;29;20503;-53
2022/06/06 02:36:50;;;;;;;7.22;2.08;;;15.90;99.90;;;;;;4085846;29;20054;-53
2022/06/06 02:39:11;;;;;;;12.88;2.22;;;15.80;99.90;;;;;;4094182;29;20625;-53
2022/06/06 02:41:32;;;;;;;9.57;2.67;;;15.80;99.90;;;;;;4091394;29;20102;-51
2022/06/06 02:43:52;;;;;;;6.53;2.17;;;15.90;99.90;;;;;;4087228;29;20418;-54
2022/06/06 02:46:13;;;;;;;7.47;1.95;;;15.90;99.90;;;;;;4093710;29;20097;-54
2022/06/06 02:48:37;;;;;;;5.32;2.67;;;15.90;99.90;;;;;;4093680;29;20491;-53
2022/06/06 02:51:00;;;;;;;11.43;2.58;;;15.90;99.90;;;;;;4093996;29;20533;-51
2022/06/06 02:53:21;;;;;;;3.25;1.58;;;15.90;99.90;;;;;;4094108;29;20098;-53
2022/06/06 02:55:42;;;;;;;8.95;2.70;;;15.70;99.90;;;;;;4093273;29;20104;-53
2022/06/06 02:58:02;;;;;;;6.15;2.08;;;15.80;99.90;;;;;;4093839;29;20655;-54
2022/06/06 03:00:27;;;;;;;3.95;1.65;;;15.80;99.90;;;;;;4093592;29;20530;-52
2022/06/06 03:02:48;;;;;;;7.43;2.72;;;15.70;99.90;;;;;;4092931;29;20058;-52
2022/06/06 03:05:09;;;;;;;7.35;1.98;;;15.60;99.90;;;;;;4093619;29;20117;-52
2022/06/06 03:07:53;;;;;;;4.78;2.40;;;15.60;99.90;;;;;;4093524;29;20057;-50
2022/06/06 03:10:25;;;;;;;4.38;2.20;;;15.50;99.90;;;;;;4093962;29;20137;-53
2022/06/06 03:13:08;;;;;;;10.18;2.70;;;15.60;99.90;;;;;;4077986;29;20141;-53
2022/06/06 03:15:41;;;;;;;8.65;3.63;;;15.40;99.90;;;;;;4077969;29;20121;-52
2022/06/06 03:21:49;;;;;;;4.68;2.15;;;15.20;99.90;;;;;;4093753;29;20061;-53
2022/06/06 03:24:31;;;;;;;6.35;1.98;;;15.20;99.90;;;;;;4093487;29;20517;-53
2022/06/06 03:27:25;;;;;;;8.55;2.75;;;15.10;99.90;;;;;;4084416;29;20123;-52
2022/06/06 03:29:58;;;;;;;3.85;2.38;;;15.10;99.90;;;;;;4083752;29;20504;-52
2022/06/06 03:32:31;;;;;;;4.63;2.20;;;15.00;99.90;;;;;;4093369;29;20061;-53
2022/06/06 03:35:20;;;;;;;3.92;1.38;;;15.20;99.90;;;;;;4093533;29;20055;-52
2022/06/06 03:37:53;;;;;;;8.10;1.95;;;15.00;99.90;;;;;;4078205;29;20058;-53
2022/06/06 03:40:17;;;;;;;9.35;3.15;;;14.90;99.90;;;;;;4090663;29;20105;-53
2022/06/06 03:43:11;;;;;;;3.15;1.55;;;15.00;99.90;;;;;;4093684;29;20446;-53
2022/06/06 03:45:39;;;;;;;8.52;2.40;;;15.20;99.90;;;;;;4082091;29;20561;-53
2022/06/06 03:48:06;;;;;;;7.78;2.08;;;15.30;99.90;;;;;;4093465;29;20097;-53
2022/06/06 03:50:55;;;;;;;6.72;1.85;;;15.20;99.90;;;;;;4087029;29;20050;-52
2022/06/06 03:53:26;;;;;;;8.30;2.25;;;15.20;99.90;;;;;;4093235;29;20101;-50
2022/06/06 03:56:13;;;;;;;7.40;2.28;;;15.20;99.90;;;;;;4093490;29;20598;-52
2022/06/06 03:58:34;;;;;;;10.38;2.15;;;15.30;99.90;;;;;;4093379;29;20050;-52
2022/06/06 04:00:57;;;;;;;8.65;2.95;;;15.20;99.90;;;;;;4093458;29;20059;-52
2022/06/06 04:03:19;;;;;;;6.22;2.40;;;15.20;99.90;;;;;;4077776;29;20062;-53
2022/06/06 04:05:40;;;;;;;6.45;1.77;;;15.10;99.90;;;;;;4089659;29;20537;-53
2022/06/06 04:08:01;;;;;;;7.18;2.88;;;15.20;99.90;;;;;;4094794;28;20561;-53
2022/06/06 04:10:27;;;;;;;5.60;2.08;;;15.10;99.90;;;;;;4096196;29;20105;-51
2022/06/06 04:13:10;;;;;;;6.05;1.95;;;15.00;99.90;;;;;;4080342;29;20054;-52
2022/06/06 04:15:45;;;;;;;5.40;2.30;;;15.00;99.90;;;;;;4093031;29;20061;-49
2022/06/06 04:18:26;;;;;;;5.40;2.40;;;15.20;99.90;;;;;;4090046;28;20117;-52
2022/06/06 04:20:58;;;;;;;4.57;2.72;;;15.10;99.90;;;;;;4095536;29;20411;-52
2022/06/06 04:23:46;;;;;;;9.48;3.30;;;15.10;99.90;;;;;;4095913;29;20282;-50
2022/06/06 04:26:32;;;;;;;5.97;2.50;;;15.10;99.90;;;;;;4095555;29;20097;-51
2022/06/06 04:29:20;;;;;;;8.43;2.35;;;15.10;99.90;;;;;;4083942;29;20050;-51
2022/06/06 04:32:07;;;;;;;5.50;2.25;;;15.00;99.90;;;;;;4079941;29;20737;-53
2022/06/06 04:34:55;;;;;;;7.85;2.33;;;14.90;99.90;;;;;;4092418;29;20058;-51
2022/06/06 04:37:49;;;;;;;2.65;1.67;;;15.00;99.90;;;;;;4094875;29;20082;-52
2022/06/06 04:40:35;;;;;;;6.43;2.15;;;15.10;99.90;;;;;;4087781;29;20109;-51
2022/06/06 04:43:12;;;;;;;5.80;3.28;;;15.10;99.90;;;;;;4095089;29;20045;-53
2022/06/06 04:45:46;;;;;;;10.02;3.78;;;15.10;99.90;;;;;;4095425;29;20058;-53
2022/06/06 04:48:08;;;;;;;8.88;2.88;;;14.90;99.90;;;;;;4079634;29;20097;-52
2022/06/06 04:50:29;;;;;;;5.60;2.97;;;15.00;99.90;;;;;;4093243;29;20633;-51
2022/06/06 04:52:59;;;;;;;10.88;3.55;;;15.00;99.90;;;;;;4094196;29;20101;-53
2022/06/06 04:55:22;;;;;;;11.85;3.13;;;15.10;99.90;;;;;;4095267;29;20059;-52
2022/06/06 04:57:48;;;;;;;10.93;3.45;;;15.00;99.90;;;;;;4095092;29;20482;-50
2022/06/06 05:00:09;;;;;;;5.05;2.10;;;15.10;99.90;;;;;;4093997;29;20472;-51
2022/06/06 05:02:31;;;;;;;6.28;3.78;;;15.20;99.90;;;;;;4087032;29;20112;-52
2022/06/06 05:04:52;;;;;;;7.03;2.75;;;15.40;99.90;;;;;;4095524;29;20066;-52
2022/06/06 05:07:29;;;;;;;10.20;2.10;;;15.40;99.90;;;;;;4095415;29;20479;-52
2022/06/06 05:09:55;;;;;;;5.35;1.83;;;15.40;99.90;;;;;;4095195;29;20161;-52
2022/06/06 05:12:24;;;;;;;4.47;1.95;;;15.50;99.90;;;;;;4104013;28;20066;-51
2022/06/06 05:15:38;;;;;;;5.75;2.80;;;15.50;99.90;;;;;;4083317;29;20097;-52
2022/06/06 05:18:02;;;;;;;;;;;15.50;99.90;;;;;;4129000;28;20418;-53
2022/06/06 05:20:22;;;;;;;4.03;2.33;;;15.50;99.90;;;;;;4098821;28;19977;-50
2022/06/06 05:23:12;;;;;;;6.22;3.10;;;15.50;99.90;;;;;;4080297;29;20062;-49
2022/06/06 05:25:48;;;;;;;5.60;2.92;;;15.50;99.90;;;;;;4088525;29;20560;-51
2022/06/06 05:28:26;;;;;;;5.65;2.25;;;15.60;99.90;;;;;;4094911;29;20049;-49
2022/06/06 05:31:06;;;;;;;5.43;2.75;;;15.70;99.90;;;;;;4095292;29;20058;-49
2022/06/06 05:33:52;;;;;;;8.30;2.50;;;15.80;99.90;;;;;;4094677;29;20155;-51
2022/06/06 05:36:31;;;;;;;4.22;2.33;;;16.10;99.90;;;;;;4079091;29;20577;-47
2022/06/06 05:39:02;;;;;;;11.48;2.75;;;16.00;99.90;;;;;;4078922;29;20109;-47
2022/06/06 05:41:50;;;;;;;11.82;3.10;;;16.10;99.90;;;;;;4079378;29;20239;-48
2022/06/06 05:44:30;;;;;;;5.82;1.70;;;16.20;99.90;;;;;;4090276;29;20062;-48
2022/06/06 05:47:26;;;;;;;6.97;2.72;;;16.40;99.90;;;;;;4094776;29;20156;-51
2022/06/06 05:50:11;;;;;;;5.80;1.90;;;16.50;99.90;;;;;;4094741;29;20125;-49
2022/06/06 05:53:14;;;;;;;10.55;2.95;;;16.60;99.90;;;;;;4095037;29;20050;-49
2022/06/06 05:56:00;;;;;;;7.05;1.88;;;16.90;99.90;;;;;;4174945;28;20056;-48
2022/06/06 05:58:39;;;;;;;6.57;3.03;;;17.00;99.90;;;;;;4175874;28;20122;-51
2022/06/06 06:01:03;;;;;;;6.03;1.67;;;17.10;99.90;;;;;;4175804;28;20141;-49
2022/06/06 06:03:53;;;;;;;8.65;2.97;;;17.20;99.90;;;;;;4175971;28;20052;-51
2022/06/06 06:06:53;;;;;;;4.80;2.00;;;17.20;99.90;;;;;;4175578;28;20048;-49
2022/06/06 06:09:55;;;;;;;6.25;1.85;;;17.40;99.90;;;;;;4142565;28;20116;-49
2022/06/06 06:12:28;;;;;;;7.25;1.35;;;17.50;99.90;;;;;;4155729;28;20057;-51
2022/06/06 06:15:02;;;;;;;7.15;1.90;;;17.80;99.90;;;;;;4159033;28;20099;-48
2022/06/06 06:17:28;;;;;;;6.03;1.77;;;18.00;99.90;;;;;;4163473;28;20059;-49
2022/06/06 06:20:05;;;;;;;4.13;1.75;;;18.30;99.90;;;;;;4175145;28;20144;-51
2022/06/06 06:22:30;;;;;;;5.75;1.58;;;18.30;99.90;;;;;;4172762;28;20128;-48
2022/06/06 06:24:54;;;;;;;5.80;1.80;;;18.70;99.90;;;;;;4159025;28;20092;-51
2022/06/06 06:27:17;;;;;;;5.57;1.85;;;18.80;99.90;;;;;;4144225;28;20544;-49
2022/06/06 06:29:38;;;;;;;;;;;18.70;99.90;;;;;;4159619;28;20060;-52
2022/06/06 06:32:06;;;;;;;5.03;1.70;;;18.80;99.90;;;;;;4108909;28;19945;-51
2022/06/06 06:34:45;;;;;;;8.13;1.73;;;19.20;99.90;;;;;;4078280;29;20070;-50
2022/06/06 06:37:24;;;;;;;6.45;1.73;;;19.50;99.90;;;;;;4082270;29;20070;-49
2022/06/06 06:39:50;;;;;;;7.78;2.50;;;19.50;99.90;;;;;;4094467;29;20058;-51
2022/06/06 06:42:33;;;;;;;4.93;1.70;;;19.60;99.90;;;;;;4078692;29;20055;-52
2022/06/06 06:45:00;;;;;;;6.45;2.38;;;20.10;99.90;;;;;;4093287;29;20058;-51
2022/06/06 06:47:33;;;;;;;11.57;1.95;;;20.10;99.90;;;;;;4093979;29;20131;-51
2022/06/06 06:50:16;;;;;;;10.93;1.60;;;20.40;99.90;;;;;;4093600;29;20047;-51
2022/06/06 06:52:46;;;;;;;9.73;1.95;;;20.30;99.90;;;;;;4115269;28;20058;-51
2022/06/06 06:55:16;;;;;;;2.85;1.10;;;20.50;99.90;;;;;;4078199;29;20533;-53
2022/06/06 06:57:58;;;;;;;6.43;1.05;;;21.00;99.90;;;;;;4092874;29;20085;-53
2022/06/06 07:00:20;;;;;;;6.28;1.27;;;21.30;99.90;;;;;;4093595;29;20097;-51
2022/06/06 07:09:02;;;;;;;7.63;2.30;;;21.50;99.90;;;;;;4093666;29;20049;-49
2022/06/06 07:11:33;;;;;;;12.32;1.27;;;21.70;99.90;;;;;;4123134;28;20044;-47
2022/06/06 07:14:20;;;;;;;9.68;2.15;;;21.80;99.90;;;;;;4077994;29;20055;-51
2022/06/06 07:16:41;;;;;;;10.75;2.17;;;21.90;99.90;;;;;;4091997;29;20462;-50
2022/06/06 07:19:12;;;;;;;9.23;1.35;;;22.10;99.90;;;;;;4085034;29;20082;-47
2022/06/06 07:21:34;;;;;;;7.90;1.52;;;22.20;99.90;;;;;;4078011;29;20102;-52
2022/06/06 07:23:57;;;;;;;;;;;21.70;99.90;;;;;;4078326;29;20091;-51
2022/06/06 07:26:19;;;;;;;8.75;1.42;;;22.00;99.90;;;;;;4077722;29;19930;-52
2022/06/06 07:28:40;;;;;;;10.70;2.40;;;22.40;99.90;;;;;;4077967;29;20086;-52
2022/06/06 07:31:16;;;;;;;8.50;1.20;;;22.60;99.90;;;;;;4077815;29;20063;-52
2022/06/06 07:34:03;;;;;;;14.65;2.33;;;22.80;99.90;;;;;;4077925;29;20074;-51
2022/06/06 07:37:01;;;;;;;6.85;2.55;;;23.00;99.90;;;;;;4077627;29;20062;-48
2022/06/06 07:39:41;;;;;;;7.43;1.25;;;23.50;99.90;;;;;;4077029;29;20382;-48
2022/06/06 07:42:20;;;;;;;17.95;1.30;;;23.50;99.90;;;;;;4077807;29;20050;-50
2022/06/06 07:44:53;;;;;;;8.55;1.00;;;23.60;99.90;;;;;;4095499;29;20050;-51
2022/06/06 07:47:30;;;;;;;7.95;1.45;;;23.70;99.90;;;;;;4096238;29;20526;-48
2022/06/06 07:50:09;;;;;;;8.68;1.40;;;24.10;99.90;;;;;;4096649;29;20132;-50
2022/06/06 07:52:32;;;;;;;8.90;1.55;;;24.00;99.90;;;;;;4096233;29;20055;-48
2022/06/06 07:55:11;;;;;;;10.23;1.98;;;24.20;99.90;;;;;;4096153;29;20104;-49
2022/06/06 07:57:55;;;;;;;18.30;1.48;;;24.00;99.90;;;;;;4096439;29;20090;-48
2022/06/06 08:00:19;;;;;;;9.40;1.65;;;24.30;99.90;;;;;;4096425;29;20096;-51
2022/06/06 08:02:58;;;;;;;14.77;0.90;;;24.70;99.90;;;;;;4096092;29;20050;-50
2022/06/06 08:05:43;;;;;;;2.78;0.90;;;24.70;99.90;;;;;;4095204;29;20129;-51
2022/06/06 08:08:12;;;;;;;5.05;1.65;;;24.80;99.90;;;;;;4096031;29;20139;-50
2022/06/06 08:10:42;;;;;;;8.48;1.83;;;24.90;99.90;;;;;;4096178;29;20120;-51
2022/06/06 08:13:25;;;;;;;5.82;1.55;;;25.20;99.90;;;;;;4079962;29;20054;-52
2022/06/06 08:15:49;;;;;;;14.32;1.27;;;25.10;99.90;;;;;;4091614;29;20407;-49
2022/06/06 08:18:37;;;;;;;5.90;1.48;;;24.70;99.90;;;;;;4095678;28;20051;-50
2022/06/06 08:21:52;;;;;;;6.03;1.23;;;25.20;99.90;;;;;;4095796;29;20143;-50
2022/06/06 08:24:24;;;;;;;6.55;0.90;;;24.90;99.90;;;;;;4144243;28;20151;-48
2022/06/06 08:27:12;;;;;;;6.75;0.90;;;24.60;99.90;;;;;;4144194;28;20673;-47
2022/06/06 08:29:39;;;;;;;10.75;0.93;;;24.60;99.90;;;;;;4128058;28;20503;-45
2022/06/06 08:32:00;;;;;;;3.90;1.55;;;24.70;99.90;;;;;;4141859;28;20061;-45
2022/06/06 08:34:21;;;;;;;5.30;0.90;;;24.90;99.90;;;;;;4136638;28;20145;-47
2022/06/06 08:37:09;;;;;;;8.27;1.27;;;25.40;99.90;;;;;;4128328;28;20049;-48
2022/06/06 08:39:50;;;;;;;4.72;0.90;;;25.70;99.90;;;;;;4144081;28;20124;-50
2022/06/06 08:42:14;;;;;;;5.15;1.08;;;26.20;99.90;;;;;;4144201;28;20578;-48
2022/06/06 08:44:52;;;;;;;9.20;1.27;;;26.00;99.90;;;;;;4133453;28;20089;-50
2022/06/06 08:47:44;;;;;;;3.63;1.00;;;26.10;99.90;;;;;;4135616;28;20052;-47
2022/06/06 08:50:44;;;;;;;7.93;0.98;;;26.40;99.90;;;;;;4146513;28;20052;-48
2022/06/06 08:53:43;;;;;;;4.53;0.90;;;26.80;99.90;;;;;;4130337;28;20053;-48
2022/06/06 08:56:09;;;;;;;5.43;0.90;;;26.60;99.90;;;;;;4141460;28;20088;-50
2022/06/06 08:58:45;;;;;;;10.35;1.10;;;26.80;99.90;;;;;;4098132;28;20062;-47
2022/06/06 09:01:17;;;;;;;6.47;1.40;;;26.80;99.90;;;;;;4079475;29;20078;-48
2022/06/06 09:04:16;;;;;;;6.82;1.25;;;26.70;99.90;;;;;;4093976;29;20079;-45
2022/06/06 09:07:11;;;;;;;7.40;0.80;;;26.40;99.90;;;;;;4094769;29;20105;-47
2022/06/06 09:09:47;;;;;;;7.90;0.80;;;26.20;99.90;;;;;;4086884;29;20055;-48
2022/06/06 09:12:37;;;;;;;8.35;0.95;;;26.40;99.90;;;;;;4136341;28;20307;-49
2022/06/06 09:15:16;;;;;;;4.47;1.40;;;26.50;99.90;;;;;;4109687;28;20054;-48
2022/06/06 09:18:08;;;;;;;8.77;1.65;;;26.70;99.90;;;;;;4094940;28;20069;-48
2022/06/06 09:20:47;;;;;;;9.48;0.90;;;26.90;99.90;;;;;;4079316;29;20106;-47
2022/06/06 09:23:21;;;;;;;12.80;0.85;;;27.20;99.90;;;;;;4093922;29;20136;-47
2022/06/06 09:26:01;;;;;;;7.63;0.90;;;27.10;99.90;;;;;;4094834;29;20058;-46
2022/06/06 09:28:37;;;;;;;4.82;0.77;;;27.00;99.90;;;;;;4088670;29;20125;-48
2022/06/06 09:31:46;;;;;;;5.88;1.42;;;27.00;99.90;;;;;;4079837;29;20055;-48
2022/06/06 09:34:34;;;;;;;7.63;0.82;;;27.80;99.90;;;;;;4152961;28;20121;-48
2022/06/06 09:37:01;;;;;;;9.65;0.90;;;27.40;99.90;;;;;;4094931;29;20105;-48
2022/06/06 09:40:04;;;;;;;4.68;0.90;;;27.50;99.90;;;;;;4079179;29;20474;-49
2022/06/06 09:42:25;;;;;;;2.38;0.85;;;27.20;99.90;;;;;;4096340;28;20082;-49
2022/06/06 09:45:11;;;;;;;6.43;1.00;;;27.00;99.90;;;;;;4088200;29;20480;-45
2022/06/06 09:48:10;;;;;;;5.43;1.05;;;27.00;99.90;;;;;;4094524;29;20074;-49
2022/06/06 09:51:08;;;;;;;10.18;0.82;;;27.30;99.90;;;;;;4094618;29;20126;-48
2022/06/06 10:00:09;;;;;;;7.78;1.00;;;27.20;99.90;;;;;;4091812;29;20411;-45
2022/06/06 10:02:58;;;;;;;11.40;1.55;;;26.60;99.90;;;;;;4092572;29;20054;-47
2022/06/06 10:05:58;;;;;;;8.43;1.20;;;26.80;99.90;;;;;;4089973;28;20144;-46
2022/06/06 10:08:41;;;;;;;3.67;0.82;;;26.60;99.90;;;;;;4093320;29;20106;-45
2022/06/06 10:11:34;;;;;;;9.57;1.90;;;26.50;99.90;;;;;;4104327;28;20073;-47
2022/06/06 10:14:23;;;;;;;5.82;1.20;;;26.70;99.90;;;;;;4092185;29;20049;-47
2022/06/06 10:17:07;;;;;;;9.02;2.33;;;26.50;99.90;;;;;;4088745;29;20125;-49
2022/06/06 10:19:49;;;;;;;5.63;1.17;;;26.50;99.90;;;;;;4082986;29;20050;-48
2022/06/06 10:22:19;;;;;;;6.25;1.25;;;26.90;99.90;;;;;;4081839;29;20120;-48
2022/06/06 10:25:11;;;;;;;6.78;1.38;;;26.50;99.90;;;;;;4091063;29;20153;-48
2022/06/06 10:28:00;;;;;;;2.05;1.00;;;26.20;99.90;;;;;;4089966;29;20089;-48
2022/06/06 10:30:24;;;;;;;5.40;0.80;;;26.30;99.90;;;;;;4081337;29;20127;-47
2022/06/06 10:33:05;;;;;;;3.28;0.90;;;26.30;99.90;;;;;;4087334;28;20165;-46
2022/06/06 10:35:50;;;;;;;3.75;1.00;;;26.50;99.90;;;;;;4085414;28;20061;-47
2022/06/06 10:38:29;;;;;;;8.02;0.82;;;26.50;99.90;;;;;;4087246;29;20134;-46
2022/06/06 10:41:09;;;;;;;3.45;1.00;;;26.60;99.90;;;;;;4078608;29;20054;-48
2022/06/06 10:43:41;;;;;;;4.15;1.05;;;27.10;99.90;;;;;;4091352;29;20062;-47
2022/06/06 10:46:22;;;;;;;;;;;27.10;99.90;;;;;;4092485;29;20128;-47
2022/06/06 10:48:55;;;;;;;15.25;1.10;;;27.00;99.90;;;;;;4092653;29;20249;-49
2022/06/06 10:51:58;;;;;;;3.88;0.80;;;27.10;99.90;;;;;;4092845;29;20090;-45
2022/06/06 10:54:33;;;;;;;5.75;0.80;;;27.10;99.90;;;;;;4089303;29;20136;-48
2022/06/06 10:57:12;;;;;;;4.55;0.82;;;27.50;99.90;;;;;;4094123;29;20141;-48
2022/06/06 10:59:42;;;;;;;5.20;0.77;;;27.70;99.90;;;;;;4091453;29;20086;-46
2022/06/06 11:02:24;;;;;;;4.38;0.70;;;27.70;99.90;;;;;;4093886;29;20169;-49
2022/06/06 11:04:57;;;;;;;5.55;1.20;;;27.70;99.90;;;;;;4088685;29;20747;-49
2022/06/06 11:07:46;;;;;;;5.07;0.80;;;27.70;99.90;;;;;;4093132;29;20113;-46
2022/06/06 11:10:17;;;;;;;11.70;2.05;;;27.50;99.90;;;;;;4083151;29;20085;-46
2022/06/06 11:12:48;;;;;;;2.35;0.63;;;27.90;99.90;;;;;;4176261;28;20098;-49
2022/06/06 11:15:09;;;;;;;4.93;1.00;;;27.90;99.90;;;;;;4078074;29;20139;-49
2022/06/06 11:17:51;;;;;;;6.13;0.90;;;28.00;99.90;;;;;;4089208;28;20131;-47
2022/06/06 11:21:03;;;;;;;5.30;0.73;;;28.30;99.90;;;;;;4096341;29;20045;-49
2022/06/06 11:23:55;;;;;;;1.67;0.80;;;28.70;99.90;;;;;;4144063;28;20084;-47
2022/06/06 11:26:40;;;;;;;5.50;0.70;;;29.00;99.90;;;;;;4080425;29;20055;-48
2022/06/06 11:29:10;;;;;;;2.42;0.60;;;28.40;99.90;;;;;;4085735;29;20054;-48
2022/06/06 11:32:36;;;;;;;3.13;0.80;;;29.00;99.90;;;;;;4092189;29;20479;-49
2022/06/06 11:35:18;;;;;;;5.63;0.98;;;28.90;99.90;;;;;;4102544;28;20485;-50
2022/06/06 11:37:48;;;;;;;3.08;0.80;;;28.40;99.90;;;;;;4093798;29;20090;-47
2022/06/06 11:40:26;;;;;;;2.60;0.77;;;28.20;99.90;;;;;;4092072;29;20062;-49
2022/06/06 11:43:12;;;;;;;6.07;0.70;;;29.20;99.90;;;;;;4096433;29;20059;-49
2022/06/06 11:46:10;;;;;;;4.03;0.70;;;28.70;99.90;;;;;;4096461;29;20049;-50
2022/06/06 11:48:47;;;;;;;4.88;0.80;;;28.30;99.90;;;;;;4095940;29;20046;-49
2022/06/06 11:51:36;;;;;;;7.70;0.70;;;28.80;99.90;;;;;;4095744;29;20085;-50
2022/06/06 11:54:25;;;;;;;3.30;0.70;;;28.90;99.90;;;;;;4080594;29;20103;-50
2022/06/06 11:56:46;;;;;;;4.00;0.80;;;29.50;99.90;;;;;;4094242;29;20157;-49
2022/06/06 11:59:54;;;;;;;7.30;0.90;;;28.90;99.90;;;;;;4095902;29;20445;-50
2022/06/06 12:02:24;;;;;;;4.60;0.60;;;28.80;99.90;;;;;;4109564;28;20050;-49
2022/06/06 12:05:05;;;;;;;6.25;1.15;;;28.70;99.90;;;;;;4103995;28;20073;-50
2022/06/06 12:07:57;;;;;;;3.15;0.80;;;28.70;99.90;;;;;;4099915;28;20073;-48
2022/06/06 12:10:22;;;;;;;3.40;0.70;;;28.50;99.90;;;;;;4109598;28;20101;-49
2022/06/06 12:13:08;;;;;;;3.70;0.70;;;29.00;99.90;;;;;;4093812;29;20587;-48
2022/06/06 12:15:37;;;;;;;4.43;0.63;;;29.00;99.90;;;;;;4109112;28;20138;-50
2022/06/06 12:18:10;;;;;;;3.88;0.93;;;29.00;99.90;;;;;;4118554;28;20065;-50
2022/06/06 12:20:40;;;;;;;9.85;1.25;;;28.90;99.90;;;;;;4120767;28;20053;-50
2022/06/06 12:23:19;;;;;;;2.08;0.70;;;28.90;99.90;;;;;;4109510;28;20430;-50
2022/06/06 12:25:54;;;;;;;3.53;1.02;;;28.60;99.90;;;;;;4093485;29;20081;-50
2022/06/06 12:28:48;;;;;;;3.92;0.95;;;28.40;99.90;;;;;;4108780;28;20442;-50
2022/06/06 12:31:37;;;;;;;5.05;0.80;;;28.20;99.90;;;;;;4096239;28;20097;-47
2022/06/06 12:34:10;;;;;;;3.40;0.75;;;28.30;99.90;;;;;;4105492;28;20502;-53
2022/06/06 12:36:50;;;;;;;2.40;0.80;;;28.70;99.90;;;;;;4104689;28;20050;-52
2022/06/06 12:39:16;;;;;;;0.93;0.70;;;28.90;99.90;;;;;;4078992;29;20090;-53
2022/06/06 12:41:49;;;;;;;4.90;0.70;;;29.30;99.90;;;;;;4094550;29;20058;-53
2022/06/06 12:44:26;;;;;;;3.65;0.80;;;29.70;99.90;;;;;;4094926;29;20653;-53
2022/06/06 12:46:53;;;;;;;3.55;1.17;;;29.90;99.90;;;;;;4096022;29;20045;-51
2022/06/06 12:49:34;;;;;;;3.72;0.70;;;29.90;99.90;;;;;;4095261;29;20089;-52
2022/06/06 12:51:58;;;;;;;3.78;0.70;;;30.20;99.20;;;;;;4094115;29;20565;-51
2022/06/06 12:55:23;;;;;;;1.70;0.60;;;29.50;99.40;;;;;;4095300;29;20054;-51
2022/06/06 12:57:16;;;;;;;7.38;0.57;;;29.60;99.50;;;;;;4079852;29;20062;-53
2022/06/06 13:00:03;;;;;;;2.92;0.60;;;29.60;99.10;;;;;;4079453;29;20066;-53
2022/06/06 13:02:34;;;;;;;1.30;0.70;;;29.20;98.50;;;;;;4087686;29;20061;-52
2022/06/06 13:05:02;;;;;;;2.10;0.70;;;29.10;98.90;;;;;;4094214;29;20469;-53
2022/06/06 13:07:23;;;;;;;1.27;0.60;;;29.30;99.50;;;;;;4095166;29;20066;-52
2022/06/06 13:09:59;;;;;;;1.95;0.60;;;29.80;98.30;;;;;;4094973;29;20109;-52
2022/06/06 13:12:47;;;;;;;5.70;1.48;;;29.90;98.20;;;;;;4108111;28;20105;-53
2022/06/06 13:15:20;;;;;;;2.95;0.80;;;29.90;99.40;;;;;;4094985;29;20117;-53
2022/06/06 13:18:08;;;;;;;4.25;0.90;;;30.10;99.20;;;;;;4094728;28;20132;-53
2022/06/06 13:20:49;;;;;;;4.95;1.10;;;30.00;98.60;;;;;;4095252;29;20050;-52
2022/06/06 13:23:33;;;;;;;3.95;0.80;;;30.20;98.70;;;;;;4079604;29;20094;-54
2022/06/06 13:26:12;;;;;;;2.08;0.70;;;30.20;98.70;;;;;;4079459;29;20135;-54
2022/06/06 13:28:52;;;;;;;4.25;0.85;;;30.20;98.50;;;;;;4091973;29;20059;-52
2022/06/06 13:31:40;;;;;;;1.50;0.88;;;30.30;98.30;;;;;;4094666;29;20053;-53
2022/06/06 13:34:01;;;;;;;1.10;0.60;;;30.10;97.50;;;;;;4094770;29;20112;-54
2022/06/06 13:36:31;;;;;;;4.90;0.60;;;30.10;97.90;;;;;;4094813;29;20441;-54
2022/06/06 13:39:19;;;;;;;3.67;0.77;;;29.90;99.00;;;;;;4079251;29;20058;-54
2022/06/06 13:41:47;;;;;;;5.53;1.10;;;29.40;99.60;;;;;;4094038;29;20057;-52
2022/06/06 13:44:23;;;;;;;2.42;0.80;;;29.00;99.50;;;;;;4094824;29;20058;-53
2022/06/06 13:47:00;;;;;;;5.05;1.00;;;28.60;99.90;;;;;;4094727;29;20054;-54